sensor_id;sensor_type;location;lat;lon;timestamp;P1;durP1;ratioP1;P2;durP2;ratioP2
12435;SDS011;6282;51.440;6.938;2023-06-19T00:01:42;3.10;;;2.65;;
12435;SDS011;6282;51.440;6.938;2023-06-19T00:04:11;2.92;;;2.45;;
12435;SDS011;6282;51.440;6.938;2023-06-19T00:06:38;2.55;;;2.35;;
12435;SDS011;6282;51.440;6.938;2023-06-19T00:09:06;2.30;;;2.05;;
12435;SDS011;6282;51.440;6.938;2023-06-19T00:11:34;4.43;;;2.50;;
12435;SDS011;6282;51.440;6.938;2023-06-19T00:14:01;2.70;;;2.50;;
12435;SDS011;6282;51.440;6.938;2023-06-19T00:16:27;3.03;;;2.78;;
12435;SDS011;6282;51.440;6.938;2023-06-19T00:18:54;3.45;;;2.88;;
12435;SDS011;6282;51.440;6.938;2023-06-19T00:21:23;3.70;;;2.60;;
12435;SDS011;6282;51.440;6.938;2023-06-19T00:23:50;2.58;;;2.30;;
12435;SDS011;6282;51.440;6.938;2023-06-19T00:26:17;2.92;;;2.63;;
12435;SDS011;6282;51.440;6.938;2023-06-19T00:28:47;3.90;;;2.80;;
12435;SDS011;6282;51.440;6.938;2023-06-19T00:31:14;3.03;;;2.72;;
12435;SDS011;6282;51.440;6.938;2023-06-19T00:33:41;3.25;;;2.85;;
12435;SDS011;6282;51.440;6.938;2023-06-19T00:36:09;2.58;;;2.38;;
12435;SDS011;6282;51.440;6.938;2023-06-19T00:38:38;4.15;;;2.50;;
12435;SDS011;6282;51.440;6.938;2023-06-19T00:41:05;2.85;;;2.60;;
12435;SDS011;6282;51.440;6.938;2023-06-19T00:43:32;2.95;;;2.63;;
12435;SDS011;6282;51.440;6.938;2023-06-19T00:46:00;2.90;;;2.38;;
12435;SDS011;6282;51.440;6.938;2023-06-19T00:48:28;2.92;;;2.63;;
12435;SDS011;6282;51.440;6.938;2023-06-19T00:50:56;2.20;;;2.00;;
12435;SDS011;6282;51.440;6.938;2023-06-19T00:53:23;2.97;;;2.40;;
12435;SDS011;6282;51.440;6.938;2023-06-19T00:55:53;2.65;;;2.45;;
12435;SDS011;6282;51.440;6.938;2023-06-19T00:58:22;2.72;;;2.25;;
12435;SDS011;6282;51.440;6.938;2023-06-19T01:00:50;3.22;;;2.60;;
12435;SDS011;6282;51.440;6.938;2023-06-19T01:03:17;2.40;;;2.20;;
12435;SDS011;6282;51.440;6.938;2023-06-19T01:05:43;3.00;;;2.40;;
12435;SDS011;6282;51.440;6.938;2023-06-19T01:08:16;2.92;;;2.58;;
12435;SDS011;6282;51.440;6.938;2023-06-19T01:10:59;2.92;;;2.63;;
12435;SDS011;6282;51.440;6.938;2023-06-19T01:13:29;2.88;;;2.58;;
12435;SDS011;6282;51.440;6.938;2023-06-19T01:16:02;2.75;;;2.53;;
12435;SDS011;6282;51.440;6.938;2023-06-19T01:18:30;3.42;;;2.70;;
12435;SDS011;6282;51.440;6.938;2023-06-19T01:21:08;2.63;;;2.42;;
12435;SDS011;6282;51.440;6.938;2023-06-19T01:23:37;2.20;;;1.98;;
12435;SDS011;6282;51.440;6.938;2023-06-19T01:26:05;2.88;;;2.67;;
12435;SDS011;6282;51.440;6.938;2023-06-19T01:28:32;2.45;;;2.20;;
12435;SDS011;6282;51.440;6.938;2023-06-19T01:30:59;2.88;;;2.58;;
12435;SDS011;6282;51.440;6.938;2023-06-19T01:33:28;2.65;;;2.40;;
12435;SDS011;6282;51.440;6.938;2023-06-19T01:35:57;2.70;;;2.50;;
12435;SDS011;6282;51.440;6.938;2023-06-19T01:38:26;2.45;;;2.25;;
12435;SDS011;6282;51.440;6.938;2023-06-19T01:40:56;2.22;;;2.03;;
12435;SDS011;6282;51.440;6.938;2023-06-19T01:43:25;2.92;;;2.65;;
12435;SDS011;6282;51.440;6.938;2023-06-19T01:45:53;3.38;;;2.60;;
12435;SDS011;6282;51.440;6.938;2023-06-19T01:48:20;3.25;;;2.70;;
12435;SDS011;6282;51.440;6.938;2023-06-19T01:50:47;2.60;;;2.40;;
12435;SDS011;6282;51.440;6.938;2023-06-19T01:53:14;3.63;;;2.88;;
12435;SDS011;6282;51.440;6.938;2023-06-19T01:55:41;2.35;;;2.15;;
12435;SDS011;6282;51.440;6.938;2023-06-19T01:58:10;3.40;;;2.70;;
12435;SDS011;6282;51.440;6.938;2023-06-19T02:00:37;2.70;;;2.50;;
12435;SDS011;6282;51.440;6.938;2023-06-19T02:03:04;2.83;;;2.60;;
12435;SDS011;6282;51.440;6.938;2023-06-19T02:05:31;2.53;;;2.33;;
12435;SDS011;6282;51.440;6.938;2023-06-19T02:07:59;3.47;;;2.88;;
12435;SDS011;6282;51.440;6.938;2023-06-19T02:10:26;2.60;;;2.40;;
12435;SDS011;6282;51.440;6.938;2023-06-19T02:12:53;2.50;;;2.30;;
12435;SDS011;6282;51.440;6.938;2023-06-19T02:15:21;2.50;;;2.30;;
12435;SDS011;6282;51.440;6.938;2023-06-19T02:17:47;2.60;;;2.40;;
12435;SDS011;6282;51.440;6.938;2023-06-19T02:20:20;2.55;;;2.33;;
12435;SDS011;6282;51.440;6.938;2023-06-19T02:22:47;2.33;;;2.13;;
12435;SDS011;6282;51.440;6.938;2023-06-19T02:25:14;2.78;;;2.47;;
12435;SDS011;6282;51.440;6.938;2023-06-19T02:27:41;3.05;;;2.50;;
12435;SDS011;6282;51.440;6.938;2023-06-19T02:30:08;3.72;;;2.50;;
12435;SDS011;6282;51.440;6.938;2023-06-19T02:32:36;3.17;;;2.88;;
12435;SDS011;6282;51.440;6.938;2023-06-19T02:35:06;2.90;;;2.63;;
12435;SDS011;6282;51.440;6.938;2023-06-19T02:37:35;2.90;;;2.65;;
12435;SDS011;6282;51.440;6.938;2023-06-19T02:40:02;4.93;;;2.60;;
12435;SDS011;6282;51.440;6.938;2023-06-19T02:42:31;2.67;;;2.35;;
12435;SDS011;6282;51.440;6.938;2023-06-19T02:44:58;3.10;;;2.58;;
12435;SDS011;6282;51.440;6.938;2023-06-19T02:47:28;3.50;;;2.88;;
12435;SDS011;6282;51.440;6.938;2023-06-19T02:49:57;3.53;;;2.40;;
12435;SDS011;6282;51.440;6.938;2023-06-19T02:52:25;2.60;;;2.40;;
12435;SDS011;6282;51.440;6.938;2023-06-19T02:54:52;3.10;;;2.60;;
12435;SDS011;6282;51.440;6.938;2023-06-19T02:57:18;2.80;;;2.50;;
12435;SDS011;6282;51.440;6.938;2023-06-19T02:59:45;3.42;;;2.30;;
12435;SDS011;6282;51.440;6.938;2023-06-19T03:02:12;4.50;;;2.78;;
12435;SDS011;6282;51.440;6.938;2023-06-19T03:04:39;3.08;;;2.83;;
12435;SDS011;6282;51.440;6.938;2023-06-19T03:07:08;2.80;;;2.60;;
12435;SDS011;6282;51.440;6.938;2023-06-19T03:09:35;2.50;;;2.30;;
12435;SDS011;6282;51.440;6.938;2023-06-19T03:12:02;3.10;;;2.80;;
12435;SDS011;6282;51.440;6.938;2023-06-19T03:14:29;3.33;;;3.00;;
12435;SDS011;6282;51.440;6.938;2023-06-19T03:16:56;3.08;;;2.70;;
12435;SDS011;6282;51.440;6.938;2023-06-19T03:19:23;2.90;;;2.60;;
12435;SDS011;6282;51.440;6.938;2023-06-19T03:21:50;2.97;;;2.75;;
12435;SDS011;6282;51.440;6.938;2023-06-19T03:24:19;4.82;;;2.78;;
12435;SDS011;6282;51.440;6.938;2023-06-19T03:26:45;2.42;;;2.20;;
12435;SDS011;6282;51.440;6.938;2023-06-19T03:29:12;2.70;;;2.50;;
12435;SDS011;6282;51.440;6.938;2023-06-19T03:31:40;4.00;;;2.78;;
12435;SDS011;6282;51.440;6.938;2023-06-19T03:34:07;2.35;;;2.15;;
12435;SDS011;6282;51.440;6.938;2023-06-19T03:36:34;3.17;;;2.50;;
12435;SDS011;6282;51.440;6.938;2023-06-19T03:39:00;3.08;;;2.55;;
12435;SDS011;6282;51.440;6.938;2023-06-19T03:41:29;4.80;;;2.90;;
12435;SDS011;6282;51.440;6.938;2023-06-19T03:43:55;3.00;;;2.70;;
12435;SDS011;6282;51.440;6.938;2023-06-19T03:46:22;2.40;;;2.20;;
12435;SDS011;6282;51.440;6.938;2023-06-19T03:48:49;4.50;;;2.47;;
12435;SDS011;6282;51.440;6.938;2023-06-19T03:51:16;4.35;;;2.78;;
12435;SDS011;6282;51.440;6.938;2023-06-19T03:53:43;2.67;;;2.47;;
12435;SDS011;6282;51.440;6.938;2023-06-19T03:56:09;2.25;;;2.05;;
12435;SDS011;6282;51.440;6.938;2023-06-19T03:58:38;3.40;;;2.65;;
12435;SDS011;6282;51.440;6.938;2023-06-19T04:01:04;2.65;;;2.33;;
12435;SDS011;6282;51.440;6.938;2023-06-19T04:03:31;2.40;;;2.20;;
12435;SDS011;6282;51.440;6.938;2023-06-19T04:05:58;2.70;;;2.35;;
12435;SDS011;6282;51.440;6.938;2023-06-19T04:08:25;2.42;;;2.22;;
12435;SDS011;6282;51.440;6.938;2023-06-19T04:10:52;3.03;;;2.53;;
12435;SDS011;6282;51.440;6.938;2023-06-19T04:13:19;1.98;;;1.88;;
12435;SDS011;6282;51.440;6.938;2023-06-19T04:15:47;2.10;;;1.90;;
12435;SDS011;6282;51.440;6.938;2023-06-19T04:18:14;2.15;;;1.95;;
12435;SDS011;6282;51.440;6.938;2023-06-19T04:20:41;1.85;;;1.75;;
12435;SDS011;6282;51.440;6.938;2023-06-19T04:23:08;2.08;;;1.83;;
12435;SDS011;6282;51.440;6.938;2023-06-19T04:25:34;2.30;;;1.90;;
12435;SDS011;6282;51.440;6.938;2023-06-19T04:28:02;2.22;;;2.03;;
12435;SDS011;6282;51.440;6.938;2023-06-19T04:30:29;2.03;;;1.85;;
12435;SDS011;6282;51.440;6.938;2023-06-19T04:32:58;2.00;;;1.67;;
12435;SDS011;6282;51.440;6.938;2023-06-19T04:35:25;2.45;;;2.13;;
12435;SDS011;6282;51.440;6.938;2023-06-19T04:37:52;2.20;;;1.75;;
12435;SDS011;6282;51.440;6.938;2023-06-19T04:40:20;2.15;;;1.92;;
12435;SDS011;6282;51.440;6.938;2023-06-19T04:42:46;1.92;;;1.55;;
12435;SDS011;6282;51.440;6.938;2023-06-19T04:45:13;1.80;;;1.70;;
12435;SDS011;6282;51.440;6.938;2023-06-19T04:47:40;2.20;;;2.00;;
12435;SDS011;6282;51.440;6.938;2023-06-19T04:50:11;2.33;;;1.95;;
12435;SDS011;6282;51.440;6.938;2023-06-19T04:52:37;2.00;;;1.80;;
12435;SDS011;6282;51.440;6.938;2023-06-19T04:55:05;1.90;;;1.80;;
12435;SDS011;6282;51.440;6.938;2023-06-19T04:57:34;2.60;;;1.80;;
12435;SDS011;6282;51.440;6.938;2023-06-19T05:00:01;1.90;;;1.80;;
12435;SDS011;6282;51.440;6.938;2023-06-19T05:02:30;2.33;;;2.00;;
12435;SDS011;6282;51.440;6.938;2023-06-19T05:04:57;2.05;;;1.85;;
12435;SDS011;6282;51.440;6.938;2023-06-19T05:07:28;2.22;;;1.90;;
12435;SDS011;6282;51.440;6.938;2023-06-19T05:09:55;1.55;;;1.42;;
12435;SDS011;6282;51.440;6.938;2023-06-19T05:12:22;2.85;;;1.80;;
12435;SDS011;6282;51.440;6.938;2023-06-19T05:14:49;1.77;;;1.67;;
12435;SDS011;6282;51.440;6.938;2023-06-19T05:17:16;2.42;;;1.90;;
12435;SDS011;6282;51.440;6.938;2023-06-19T05:19:43;1.60;;;1.50;;
12435;SDS011;6282;51.440;6.938;2023-06-19T05:22:09;2.30;;;1.83;;
12435;SDS011;6282;51.440;6.938;2023-06-19T05:24:38;1.48;;;1.38;;
12435;SDS011;6282;51.440;6.938;2023-06-19T05:27:05;2.92;;;1.73;;
12435;SDS011;6282;51.440;6.938;2023-06-19T05:29:32;2.50;;;1.83;;
12435;SDS011;6282;51.440;6.938;2023-06-19T05:31:59;3.10;;;1.92;;
12435;SDS011;6282;51.440;6.938;2023-06-19T05:34:25;1.83;;;1.73;;
12435;SDS011;6282;51.440;6.938;2023-06-19T05:36:52;1.80;;;1.70;;
12435;SDS011;6282;51.440;6.938;2023-06-19T05:39:19;1.75;;;1.33;;
12435;SDS011;6282;51.440;6.938;2023-06-19T05:41:47;2.05;;;1.67;;
12435;SDS011;6282;51.440;6.938;2023-06-19T05:44:14;2.05;;;1.58;;
12435;SDS011;6282;51.440;6.938;2023-06-19T05:46:41;2.95;;;1.58;;
12435;SDS011;6282;51.440;6.938;2023-06-19T05:49:09;1.60;;;1.50;;
12435;SDS011;6282;51.440;6.938;2023-06-19T05:51:35;1.65;;;1.50;;
12435;SDS011;6282;51.440;6.938;2023-06-19T05:54:02;2.03;;;1.55;;
12435;SDS011;6282;51.440;6.938;2023-06-19T05:56:29;1.85;;;1.70;;
12435;SDS011;6282;51.440;6.938;2023-06-19T05:58:59;1.80;;;1.60;;
12435;SDS011;6282;51.440;6.938;2023-06-19T06:01:27;1.52;;;1.40;;
12435;SDS011;6282;51.440;6.938;2023-06-19T06:03:54;1.92;;;1.75;;
12435;SDS011;6282;51.440;6.938;2023-06-19T06:06:22;1.65;;;1.50;;
12435;SDS011;6282;51.440;6.938;2023-06-19T06:08:49;1.50;;;1.33;;
12435;SDS011;6282;51.440;6.938;2023-06-19T06:11:17;3.88;;;1.40;;
12435;SDS011;6282;51.440;6.938;2023-06-19T06:13:44;3.35;;;1.70;;
12435;SDS011;6282;51.440;6.938;2023-06-19T06:16:12;2.08;;;1.60;;
12435;SDS011;6282;51.440;6.938;2023-06-19T06:18:39;1.60;;;1.50;;
12435;SDS011;6282;51.440;6.938;2023-06-19T06:21:06;1.40;;;1.08;;
12435;SDS011;6282;51.440;6.938;2023-06-19T06:23:34;1.45;;;1.35;;
12435;SDS011;6282;51.440;6.938;2023-06-19T06:26:01;1.40;;;1.30;;
12435;SDS011;6282;51.440;6.938;2023-06-19T06:28:28;1.60;;;1.40;;
12435;SDS011;6282;51.440;6.938;2023-06-19T06:30:55;1.80;;;1.20;;
12435;SDS011;6282;51.440;6.938;2023-06-19T06:33:24;1.33;;;1.25;;
12435;SDS011;6282;51.440;6.938;2023-06-19T06:35:51;1.42;;;1.33;;
12435;SDS011;6282;51.440;6.938;2023-06-19T06:38:20;1.60;;;1.30;;
12435;SDS011;6282;51.440;6.938;2023-06-19T06:40:47;2.08;;;1.30;;
12435;SDS011;6282;51.440;6.938;2023-06-19T06:43:15;1.45;;;1.35;;
12435;SDS011;6282;51.440;6.938;2023-06-19T06:45:42;1.73;;;1.20;;
12435;SDS011;6282;51.440;6.938;2023-06-19T06:48:09;1.40;;;1.30;;
12435;SDS011;6282;51.440;6.938;2023-06-19T06:50:37;2.10;;;1.50;;
12435;SDS011;6282;51.440;6.938;2023-06-19T06:53:05;2.00;;;1.30;;
12435;SDS011;6282;51.440;6.938;2023-06-19T06:55:33;2.30;;;1.30;;
12435;SDS011;6282;51.440;6.938;2023-06-19T06:58:00;1.40;;;1.30;;
12435;SDS011;6282;51.440;6.938;2023-06-19T07:00:27;1.58;;;1.30;;
12435;SDS011;6282;51.440;6.938;2023-06-19T07:02:54;2.22;;;1.67;;
12435;SDS011;6282;51.440;6.938;2023-06-19T07:05:22;1.38;;;1.23;;
12435;SDS011;6282;51.440;6.938;2023-06-19T07:07:50;1.60;;;1.50;;
12435;SDS011;6282;51.440;6.938;2023-06-19T07:10:17;1.90;;;1.50;;
12435;SDS011;6282;51.440;6.938;2023-06-19T07:12:44;1.70;;;1.60;;
12435;SDS011;6282;51.440;6.938;2023-06-19T07:15:12;3.35;;;1.58;;
12435;SDS011;6282;51.440;6.938;2023-06-19T07:17:39;1.60;;;1.50;;
12435;SDS011;6282;51.440;6.938;2023-06-19T07:20:06;1.92;;;1.48;;
12435;SDS011;6282;51.440;6.938;2023-06-19T07:22:34;1.48;;;1.35;;
12435;SDS011;6282;51.440;6.938;2023-06-19T07:25:02;2.55;;;1.48;;
12435;SDS011;6282;51.440;6.938;2023-06-19T07:27:30;2.63;;;1.60;;
12435;SDS011;6282;51.440;6.938;2023-06-19T07:29:57;1.80;;;1.70;;
12435;SDS011;6282;51.440;6.938;2023-06-19T07:32:24;1.98;;;1.75;;
12435;SDS011;6282;51.440;6.938;2023-06-19T07:34:50;1.42;;;1.33;;
12435;SDS011;6282;51.440;6.938;2023-06-19T07:37:17;2.25;;;1.50;;
12435;SDS011;6282;51.440;6.938;2023-06-19T07:39:45;1.40;;;1.30;;
12435;SDS011;6282;51.440;6.938;2023-06-19T07:42:14;2.05;;;1.45;;
12435;SDS011;6282;51.440;6.938;2023-06-19T07:44:41;1.48;;;1.38;;
12435;SDS011;6282;51.440;6.938;2023-06-19T07:47:08;1.73;;;1.60;;
12435;SDS011;6282;51.440;6.938;2023-06-19T07:49:36;1.52;;;1.42;;
12435;SDS011;6282;51.440;6.938;2023-06-19T07:52:03;1.92;;;1.55;;
12435;SDS011;6282;51.440;6.938;2023-06-19T07:54:30;2.78;;;1.65;;
12435;SDS011;6282;51.440;6.938;2023-06-19T07:56:57;1.70;;;1.60;;
12435;SDS011;6282;51.440;6.938;2023-06-19T07:59:25;1.27;;;1.20;;
12435;SDS011;6282;51.440;6.938;2023-06-19T08:01:52;1.75;;;1.48;;
12435;SDS011;6282;51.440;6.938;2023-06-19T08:04:19;1.17;;;1.13;;
12435;SDS011;6282;51.440;6.938;2023-06-19T08:06:46;1.52;;;1.42;;
12435;SDS011;6282;51.440;6.938;2023-06-19T08:09:13;1.42;;;1.33;;
12435;SDS011;6282;51.440;6.938;2023-06-19T08:11:40;1.45;;;1.33;;
12435;SDS011;6282;51.440;6.938;2023-06-19T08:14:07;1.92;;;1.40;;
12435;SDS011;6282;51.440;6.938;2023-06-19T08:16:35;1.27;;;1.17;;
12435;SDS011;6282;51.440;6.938;2023-06-19T08:19:02;1.80;;;1.30;;
12435;SDS011;6282;51.440;6.938;2023-06-19T08:21:29;2.25;;;1.30;;
12435;SDS011;6282;51.440;6.938;2023-06-19T08:23:56;1.40;;;1.30;;
12435;SDS011;6282;51.440;6.938;2023-06-19T08:26:23;1.55;;;1.35;;
12435;SDS011;6282;51.440;6.938;2023-06-19T08:28:50;1.30;;;1.20;;
12435;SDS011;6282;51.440;6.938;2023-06-19T08:31:17;2.30;;;1.20;;
12435;SDS011;6282;51.440;6.938;2023-06-19T08:33:46;1.60;;;1.17;;
12435;SDS011;6282;51.440;6.938;2023-06-19T08:36:14;1.85;;;1.50;;
12435;SDS011;6282;51.440;6.938;2023-06-19T08:38:41;1.58;;;1.35;;
12435;SDS011;6282;51.440;6.938;2023-06-19T08:41:08;1.30;;;1.20;;
12435;SDS011;6282;51.440;6.938;2023-06-19T08:43:35;2.90;;;1.10;;
12435;SDS011;6282;51.440;6.938;2023-06-19T08:46:06;1.25;;;1.20;;
12435;SDS011;6282;51.440;6.938;2023-06-19T08:48:36;1.30;;;1.20;;
12435;SDS011;6282;51.440;6.938;2023-06-19T08:51:05;1.50;;;1.40;;
12435;SDS011;6282;51.440;6.938;2023-06-19T08:53:32;1.63;;;1.52;;
12435;SDS011;6282;51.440;6.938;2023-06-19T08:56:01;1.73;;;1.63;;
12435;SDS011;6282;51.440;6.938;2023-06-19T08:58:28;1.70;;;1.60;;
12435;SDS011;6282;51.440;6.938;2023-06-19T09:00:57;1.75;;;1.65;;
12435;SDS011;6282;51.440;6.938;2023-06-19T09:03:24;1.45;;;1.35;;
12435;SDS011;6282;51.440;6.938;2023-06-19T09:05:51;4.28;;;1.55;;
12435;SDS011;6282;51.440;6.938;2023-06-19T09:08:19;1.70;;;1.50;;
12435;SDS011;6282;51.440;6.938;2023-06-19T09:10:54;2.00;;;1.45;;
12435;SDS011;6282;51.440;6.938;2023-06-19T09:13:22;2.22;;;2.03;;
12435;SDS011;6282;51.440;6.938;2023-06-19T09:15:56;1.95;;;1.48;;
12435;SDS011;6282;51.440;6.938;2023-06-19T09:18:24;1.20;;;1.15;;
12435;SDS011;6282;51.440;6.938;2023-06-19T09:20:52;1.70;;;1.60;;
12435;SDS011;6282;51.440;6.938;2023-06-19T09:23:21;1.60;;;1.50;;
12435;SDS011;6282;51.440;6.938;2023-06-19T09:25:49;2.47;;;1.50;;
12435;SDS011;6282;51.440;6.938;2023-06-19T09:28:17;2.75;;;1.33;;
12435;SDS011;6282;51.440;6.938;2023-06-19T09:30:55;1.50;;;1.40;;
12435;SDS011;6282;51.440;6.938;2023-06-19T09:33:24;1.60;;;1.50;;
12435;SDS011;6282;51.440;6.938;2023-06-19T09:35:52;3.05;;;1.45;;
12435;SDS011;6282;51.440;6.938;2023-06-19T09:38:22;2.55;;;1.58;;
12435;SDS011;6282;51.440;6.938;2023-06-19T09:40:51;1.60;;;1.50;;
12435;SDS011;6282;51.440;6.938;2023-06-19T09:43:19;4.35;;;1.63;;
12435;SDS011;6282;51.440;6.938;2023-06-19T09:45:50;1.77;;;1.67;;
12435;SDS011;6282;51.440;6.938;2023-06-19T09:48:23;2.80;;;1.92;;
12435;SDS011;6282;51.440;6.938;2023-06-19T09:50:54;2.75;;;1.90;;
12435;SDS011;6282;51.440;6.938;2023-06-19T09:53:28;1.88;;;1.60;;
12435;SDS011;6282;51.440;6.938;2023-06-19T09:55:56;1.83;;;1.60;;
12435;SDS011;6282;51.440;6.938;2023-06-19T09:58:23;2.13;;;1.70;;
12435;SDS011;6282;51.440;6.938;2023-06-19T10:00:51;3.10;;;1.70;;
12435;SDS011;6282;51.440;6.938;2023-06-19T10:03:20;3.97;;;1.80;;
12435;SDS011;6282;51.440;6.938;2023-06-19T10:05:56;2.50;;;1.45;;
12435;SDS011;6282;51.440;6.938;2023-06-19T10:08:29;2.55;;;1.90;;
12435;SDS011;6282;51.440;6.938;2023-06-19T10:10:56;3.03;;;1.80;;
12435;SDS011;6282;51.440;6.938;2023-06-19T10:13:30;3.97;;;1.90;;
12435;SDS011;6282;51.440;6.938;2023-06-19T10:15:58;2.38;;;1.70;;
12435;SDS011;6282;51.440;6.938;2023-06-19T10:18:25;2.08;;;1.83;;
12435;SDS011;6282;51.440;6.938;2023-06-19T10:20:53;2.05;;;1.85;;
12435;SDS011;6282;51.440;6.938;2023-06-19T10:23:22;3.15;;;2.17;;
12435;SDS011;6282;51.440;6.938;2023-06-19T10:25:56;2.33;;;2.13;;
12435;SDS011;6282;51.440;6.938;2023-06-19T10:28:24;2.28;;;2.08;;
12435;SDS011;6282;51.440;6.938;2023-06-19T10:30:53;2.85;;;2.33;;
12435;SDS011;6282;51.440;6.938;2023-06-19T10:33:21;2.88;;;2.25;;
12435;SDS011;6282;51.440;6.938;2023-06-19T10:35:50;2.53;;;2.17;;
12435;SDS011;6282;51.440;6.938;2023-06-19T10:38:17;1.92;;;1.73;;
12435;SDS011;6282;51.440;6.938;2023-06-19T10:40:44;2.95;;;2.22;;
12435;SDS011;6282;51.440;6.938;2023-06-19T10:43:13;2.22;;;2.03;;
12435;SDS011;6282;51.440;6.938;2023-06-19T10:45:46;2.42;;;2.22;;
12435;SDS011;6282;51.440;6.938;2023-06-19T10:48:17;2.13;;;1.88;;
12435;SDS011;6282;51.440;6.938;2023-06-19T10:50:45;2.17;;;1.98;;
12435;SDS011;6282;51.440;6.938;2023-06-19T10:53:22;3.97;;;2.40;;
12435;SDS011;6282;51.440;6.938;2023-06-19T10:55:54;2.75;;;2.20;;
12435;SDS011;6282;51.440;6.938;2023-06-19T10:58:22;2.80;;;1.80;;
12435;SDS011;6282;51.440;6.938;2023-06-19T11:00:49;2.78;;;2.28;;
12435;SDS011;6282;51.440;6.938;2023-06-19T11:03:16;2.25;;;2.10;;
12435;SDS011;6282;51.440;6.938;2023-06-19T11:05:44;2.30;;;2.10;;
12435;SDS011;6282;51.440;6.938;2023-06-19T11:08:16;2.20;;;1.98;;
12435;SDS011;6282;51.440;6.938;2023-06-19T11:10:44;2.33;;;2.13;;
12435;SDS011;6282;51.440;6.938;2023-06-19T11:13:13;2.47;;;2.10;;
12435;SDS011;6282;51.440;6.938;2023-06-19T11:15:42;2.95;;;2.00;;
12435;SDS011;6282;51.440;6.938;2023-06-19T11:18:09;3.35;;;2.38;;
12435;SDS011;6282;51.440;6.938;2023-06-19T11:20:43;2.88;;;2.10;;
12435;SDS011;6282;51.440;6.938;2023-06-19T11:23:11;2.55;;;2.35;;
12435;SDS011;6282;51.440;6.938;2023-06-19T11:25:39;4.05;;;2.38;;
12435;SDS011;6282;51.440;6.938;2023-06-19T11:28:10;2.28;;;2.08;;
12435;SDS011;6282;51.440;6.938;2023-06-19T11:30:39;3.72;;;2.58;;
12435;SDS011;6282;51.440;6.938;2023-06-19T11:33:16;2.20;;;2.00;;
12435;SDS011;6282;51.440;6.938;2023-06-19T11:35:47;2.75;;;2.30;;
12435;SDS011;6282;51.440;6.938;2023-06-19T11:38:16;3.75;;;2.63;;
12435;SDS011;6282;51.440;6.938;2023-06-19T11:40:44;3.40;;;2.47;;
12435;SDS011;6282;51.440;6.938;2023-06-19T11:43:11;2.60;;;2.40;;
12435;SDS011;6282;51.440;6.938;2023-06-19T11:45:47;3.75;;;2.22;;
12435;SDS011;6282;51.440;6.938;2023-06-19T11:48:14;3.25;;;2.13;;
12435;SDS011;6282;51.440;6.938;2023-06-19T11:50:48;3.13;;;2.78;;
12435;SDS011;6282;51.440;6.938;2023-06-19T11:53:16;2.85;;;2.28;;
12435;SDS011;6282;51.440;6.938;2023-06-19T11:55:43;2.88;;;2.55;;
12435;SDS011;6282;51.440;6.938;2023-06-19T11:58:11;2.53;;;2.33;;
12435;SDS011;6282;51.440;6.938;2023-06-19T12:00:38;3.20;;;2.42;;
12435;SDS011;6282;51.440;6.938;2023-06-19T12:03:06;3.00;;;2.72;;
12435;SDS011;6282;51.440;6.938;2023-06-19T12:05:33;2.97;;;2.60;;
12435;SDS011;6282;51.440;6.938;2023-06-19T12:08:00;3.22;;;2.60;;
12435;SDS011;6282;51.440;6.938;2023-06-19T12:10:27;2.90;;;2.70;;
12435;SDS011;6282;51.440;6.938;2023-06-19T12:12:55;3.65;;;2.67;;
12435;SDS011;6282;51.440;6.938;2023-06-19T12:15:22;3.42;;;2.70;;
12435;SDS011;6282;51.440;6.938;2023-06-19T12:17:50;2.70;;;2.45;;
12435;SDS011;6282;51.440;6.938;2023-06-19T12:20:19;3.25;;;2.60;;
12435;SDS011;6282;51.440;6.938;2023-06-19T12:22:46;4.65;;;2.80;;
12435;SDS011;6282;51.440;6.938;2023-06-19T12:25:13;3.30;;;2.53;;
12435;SDS011;6282;51.440;6.938;2023-06-19T12:27:40;3.22;;;2.80;;
12435;SDS011;6282;51.440;6.938;2023-06-19T12:30:07;2.88;;;2.58;;
12435;SDS011;6282;51.440;6.938;2023-06-19T12:32:35;2.75;;;2.38;;
12435;SDS011;6282;51.440;6.938;2023-06-19T12:35:02;3.00;;;2.80;;
12435;SDS011;6282;51.440;6.938;2023-06-19T12:37:30;3.15;;;2.40;;
12435;SDS011;6282;51.440;6.938;2023-06-19T12:39:58;3.63;;;2.90;;
12435;SDS011;6282;51.440;6.938;2023-06-19T12:42:24;3.00;;;2.70;;
12435;SDS011;6282;51.440;6.938;2023-06-19T12:44:51;2.78;;;2.47;;
12435;SDS011;6282;51.440;6.938;2023-06-19T12:47:18;2.92;;;2.67;;
12435;SDS011;6282;51.440;6.938;2023-06-19T12:49:45;3.75;;;2.85;;
12435;SDS011;6282;51.440;6.938;2023-06-19T12:52:12;2.92;;;2.60;;
12435;SDS011;6282;51.440;6.938;2023-06-19T12:54:40;4.55;;;2.53;;
12435;SDS011;6282;51.440;6.938;2023-06-19T12:57:08;3.75;;;2.80;;
12435;SDS011;6282;51.440;6.938;2023-06-19T12:59:35;3.30;;;2.88;;
12435;SDS011;6282;51.440;6.938;2023-06-19T13:02:01;4.72;;;2.92;;
12435;SDS011;6282;51.440;6.938;2023-06-19T13:04:29;3.25;;;2.80;;
12435;SDS011;6282;51.440;6.938;2023-06-19T13:06:55;3.05;;;2.72;;
12435;SDS011;6282;51.440;6.938;2023-06-19T13:09:22;3.22;;;2.80;;
12435;SDS011;6282;51.440;6.938;2023-06-19T13:11:51;3.65;;;3.00;;
12435;SDS011;6282;51.440;6.938;2023-06-19T13:14:18;4.82;;;3.05;;
12435;SDS011;6282;51.440;6.938;2023-06-19T13:16:44;3.00;;;2.70;;
12435;SDS011;6282;51.440;6.938;2023-06-19T13:19:11;4.20;;;2.58;;
12435;SDS011;6282;51.440;6.938;2023-06-19T13:21:38;2.80;;;2.60;;
12435;SDS011;6282;51.440;6.938;2023-06-19T13:24:05;3.10;;;2.80;;
12435;SDS011;6282;51.440;6.938;2023-06-19T13:26:32;2.80;;;2.55;;
12435;SDS011;6282;51.440;6.938;2023-06-19T13:29:00;2.97;;;2.65;;
12435;SDS011;6282;51.440;6.938;2023-06-19T13:31:27;2.80;;;2.55;;
12435;SDS011;6282;51.440;6.938;2023-06-19T13:33:54;2.78;;;2.50;;
12435;SDS011;6282;51.440;6.938;2023-06-19T13:36:21;3.05;;;2.67;;
12435;SDS011;6282;51.440;6.938;2023-06-19T13:38:48;3.38;;;2.60;;
12435;SDS011;6282;51.440;6.938;2023-06-19T13:41:17;3.38;;;2.38;;
12435;SDS011;6282;51.440;6.938;2023-06-19T13:43:44;2.60;;;2.00;;
12435;SDS011;6282;51.440;6.938;2023-06-19T13:46:13;3.47;;;2.20;;
12435;SDS011;6282;51.440;6.938;2023-06-19T13:48:40;2.83;;;2.60;;
12435;SDS011;6282;51.440;6.938;2023-06-19T13:51:07;2.83;;;2.60;;
12435;SDS011;6282;51.440;6.938;2023-06-19T13:53:34;2.60;;;2.40;;
12435;SDS011;6282;51.440;6.938;2023-06-19T13:56:01;2.58;;;2.00;;
12435;SDS011;6282;51.440;6.938;2023-06-19T13:58:28;2.60;;;2.40;;
12435;SDS011;6282;51.440;6.938;2023-06-19T14:00:55;2.45;;;2.25;;
12435;SDS011;6282;51.440;6.938;2023-06-19T14:03:23;3.10;;;2.55;;
12435;SDS011;6282;51.440;6.938;2023-06-19T14:05:50;2.65;;;2.45;;
12435;SDS011;6282;51.440;6.938;2023-06-19T14:08:17;2.75;;;2.55;;
12435;SDS011;6282;51.440;6.938;2023-06-19T14:10:43;2.97;;;2.42;;
12435;SDS011;6282;51.440;6.938;2023-06-19T14:13:10;3.15;;;2.42;;
12435;SDS011;6282;51.440;6.938;2023-06-19T14:15:37;2.40;;;2.20;;
12435;SDS011;6282;51.440;6.938;2023-06-19T14:18:04;3.17;;;2.25;;
12435;SDS011;6282;51.440;6.938;2023-06-19T14:20:32;3.92;;;2.65;;
12435;SDS011;6282;51.440;6.938;2023-06-19T14:23:00;2.65;;;2.45;;
12435;SDS011;6282;51.440;6.938;2023-06-19T14:25:27;2.88;;;2.53;;
12435;SDS011;6282;51.440;6.938;2023-06-19T14:27:54;2.67;;;2.47;;
12435;SDS011;6282;51.440;6.938;2023-06-19T14:30:21;2.88;;;2.63;;
12435;SDS011;6282;51.440;6.938;2023-06-19T14:32:48;3.40;;;2.78;;
12435;SDS011;6282;51.440;6.938;2023-06-19T14:35:14;2.67;;;2.47;;
12435;SDS011;6282;51.440;6.938;2023-06-19T14:37:43;3.13;;;2.65;;
12435;SDS011;6282;51.440;6.938;2023-06-19T14:40:10;4.68;;;2.90;;
12435;SDS011;6282;51.440;6.938;2023-06-19T14:42:37;4.90;;;2.90;;
12435;SDS011;6282;51.440;6.938;2023-06-19T14:45:05;2.72;;;2.40;;
12435;SDS011;6282;51.440;6.938;2023-06-19T14:47:33;2.90;;;2.70;;
12435;SDS011;6282;51.440;6.938;2023-06-19T14:50:00;3.45;;;2.33;;
12435;SDS011;6282;51.440;6.938;2023-06-19T14:52:26;2.72;;;2.38;;
12435;SDS011;6282;51.440;6.938;2023-06-19T14:54:55;2.75;;;2.42;;
12435;SDS011;6282;51.440;6.938;2023-06-19T14:57:21;2.90;;;2.45;;
12435;SDS011;6282;51.440;6.938;2023-06-19T14:59:50;3.40;;;2.60;;
12435;SDS011;6282;51.440;6.938;2023-06-19T15:02:17;2.72;;;2.30;;
12435;SDS011;6282;51.440;6.938;2023-06-19T15:04:44;3.10;;;2.80;;